Time;durP1;ratioP1;P1;durP2;ratioP2;P2;SDS_P1;SDS_P2;PMS_P1;PMS_P2;Temp;Humidity;BMP_temperature;BMP_pressure;BME280_temperature;BME280_humidity;BME280_pressure;Samples;Min_cycle;Max_cycle;Signal;HPM_P1;HPM_P2
2023/12/12 00:02:16;;;;;;;5.17;2.53;;;7.10;99.90;;;;;;5022925;28;20306;-50
2023/12/12 00:04:42;;;;;;;3.13;2.93;;;7.10;99.90;;;;;;5019567;28;20202;-50
2023/12/12 00:07:07;;;;;;;3.20;2.90;;;7.10;99.90;;;;;;5021290;28;20211;-50
2023/12/12 00:09:33;;;;;;;2.73;2.33;;;7.10;99.90;;;;;;5020060;28;20209;-50
2023/12/12 00:11:58;;;;;;;3.13;2.83;;;7.10;99.90;;;;;;5021596;28;20978;-50
2023/12/12 00:14:24;;;;;;;3.00;2.40;;;7.10;99.90;;;;;;5019124;28;20552;-51
2023/12/12 00:16:51;;;;;;;3.47;2.80;;;7.10;99.90;;;;;;5010448;28;20203;-51
2023/12/12 00:19:17;;;;;;;3.67;2.87;;;7.10;99.90;;;;;;5013292;28;20219;-51
2023/12/12 00:21:42;;;;;;;3.30;3.00;;;7.10;99.90;;;;;;5016231;28;20195;-51
2023/12/12 00:24:08;;;;;;;3.40;3.10;;;7.10;99.90;;;;;;5014209;28;20782;-50
2023/12/12 00:26:34;;;;;;;3.90;3.47;;;7.10;99.90;;;;;;5023749;28;20187;-53
2023/12/12 00:28:59;;;;;;;3.27;3.00;;;7.00;99.90;;;;;;5020069;28;20587;-56
2023/12/12 00:31:25;;;;;;;4.57;3.33;;;7.10;99.90;;;;;;5017470;28;20207;-50
2023/12/12 00:33:51;;;;;;;4.80;2.87;;;7.00;99.90;;;;;;5023220;28;20218;-58
2023/12/12 00:36:16;;;;;;;3.53;3.23;;;7.00;99.90;;;;;;5017463;28;20310;-50
2023/12/12 00:38:42;;;;;;;3.63;3.33;;;7.00;99.90;;;;;;5016571;28;20192;-50
2023/12/12 00:41:07;;;;;;;3.80;3.40;;;7.00;99.90;;;;;;5016877;28;20257;-51
2023/12/12 00:43:33;;;;;;;4.87;4.37;;;7.00;99.90;;;;;;5020343;28;20699;-50
2023/12/12 00:45:58;;;;;;;4.53;4.10;;;7.00;99.90;;;;;;5017028;28;20576;-51
2023/12/12 00:48:24;;;;;;;3.97;3.53;;;7.00;99.90;;;;;;5020956;28;20748;-50
2023/12/12 00:50:49;;;;;;;5.50;3.87;;;7.00;99.90;;;;;;5020944;28;20926;-50
2023/12/12 00:53:15;;;;;;;5.77;4.07;;;7.00;99.90;;;;;;5017890;28;20251;-51
2023/12/12 00:55:41;;;;;;;4.60;3.60;;;7.00;99.90;;;;;;5020733;28;20199;-51
2023/12/12 00:58:07;;;;;;;3.97;3.57;;;7.00;99.90;;;;;;5018068;28;20231;-50
2023/12/12 01:00:32;;;;;;;3.80;3.33;;;7.00;99.90;;;;;;5021254;28;20211;-51
2023/12/12 01:02:58;;;;;;;3.63;3.33;;;7.00;99.90;;;;;;5026490;28;20692;-50
2023/12/12 01:05:23;;;;;;;4.20;3.50;;;7.00;99.90;;;;;;5022909;28;20262;-50
2023/12/12 01:07:49;;;;;;;3.83;3.53;;;7.00;99.90;;;;;;5018697;28;20302;-50
2023/12/12 01:10:14;;;;;;;5.13;3.20;;;7.00;99.90;;;;;;5005417;28;20314;-51
2023/12/12 01:12:40;;;;;;;6.17;3.57;;;7.00;99.90;;;;;;5016161;28;20202;-50
2023/12/12 01:15:06;;;;;;;3.23;2.93;;;6.90;99.90;;;;;;5024389;28;20677;-50
2023/12/12 01:17:31;;;;;;;3.90;3.60;;;6.90;99.90;;;;;;5016732;28;20207;-51
2023/12/12 01:19:57;;;;;;;4.97;4.37;;;7.00;99.90;;;;;;5021942;28;20282;-51
2023/12/12 01:22:22;;;;;;;4.13;3.30;;;7.00;99.90;;;;;;5023920;28;20676;-51
2023/12/12 01:24:48;;;;;;;4.23;3.40;;;7.00;99.90;;;;;;5016193;28;20662;-51
2023/12/12 01:27:14;;;;;;;4.30;3.37;;;7.00;99.90;;;;;;5022344;28;20227;-50
2023/12/12 01:29:39;;;;;;;4.17;3.77;;;7.00;99.90;;;;;;5018773;28;22869;-50
2023/12/12 01:32:05;;;;;;;3.83;3.23;;;7.00;99.90;;;;;;5018872;28;20709;-51
2023/12/12 01:34:30;;;;;;;4.33;3.43;;;7.00;99.90;;;;;;5014595;28;20204;-52
2023/12/12 01:36:56;;;;;;;3.37;3.07;;;7.00;99.90;;;;;;5015024;28;20203;-51
2023/12/12 01:39:21;;;;;;;3.60;2.93;;;6.90;99.90;;;;;;5018117;28;20210;-51
2023/12/12 01:41:48;;;;;;;3.00;2.70;;;7.00;99.90;;;;;;5019813;28;20218;-51
2023/12/12 01:44:14;;;;;;;3.30;2.73;;;7.00;99.90;;;;;;5012189;28;20684;-51
2023/12/12 01:46:41;;;;;;;3.70;3.03;;;6.90;99.90;;;;;;5019578;28;20203;-50
2023/12/12 01:49:07;;;;;;;3.37;3.07;;;7.00;99.90;;;;;;5017698;28;20376;-50
2023/12/12 01:51:34;;;;;;;2.83;2.63;;;6.90;99.90;;;;;;5023961;28;20317;-49
2023/12/12 01:54:01;;;;;;;4.43;3.60;;;6.90;99.90;;;;;;5022450;28;20570;-51
2023/12/12 01:56:28;;;;;;;4.50;2.87;;;6.90;99.90;;;;;;5002360;28;20887;-56
2023/12/12 01:58:56;;;;;;;3.17;2.80;;;6.90;99.90;;;;;;5018967;28;20277;-53
2023/12/12 02:01:22;;;;;;;3.83;3.30;;;6.90;99.90;;;;;;5013516;28;20202;-55
2023/12/12 02:03:49;;;;;;;3.97;3.53;;;7.00;99.90;;;;;;5019272;28;20221;-51
2023/12/12 02:06:21;;;;;;;3.70;3.40;;;7.00;99.90;;;;;;5016531;28;20690;-51
2023/12/12 02:08:51;;;;;;;4.60;4.07;;;6.90;99.90;;;;;;5018476;28;20792;-51
2023/12/12 02:11:17;;;;;;;4.07;3.70;;;6.90;99.90;;;;;;5004158;28;20215;-51
2023/12/12 02:13:43;;;;;;;4.33;3.70;;;6.90;99.90;;;;;;5014795;28;20219;-51
2023/12/12 02:16:09;;;;;;;5.67;4.13;;;6.90;99.90;;;;;;5017093;28;20325;-51
2023/12/12 02:18:36;;;;;;;4.47;4.07;;;6.90;99.90;;;;;;5017325;28;20200;-50
2023/12/12 02:21:01;;;;;;;4.73;4.00;;;6.90;99.90;;;;;;5022525;28;20194;-50
2023/12/12 02:23:28;;;;;;;4.50;4.10;;;6.90;99.90;;;;;;5017593;28;20548;-50
2023/12/12 02:25:54;;;;;;;4.47;4.07;;;7.00;99.90;;;;;;5025838;28;20503;-49
2023/12/12 02:28:20;;;;;;;4.43;3.93;;;7.00;99.90;;;;;;5026535;28;20219;-49
2023/12/12 02:30:46;;;;;;;4.73;4.30;;;7.10;99.90;;;;;;5004633;28;20206;-50
2023/12/12 02:33:11;;;;;;;7.00;5.53;;;7.10;99.90;;;;;;5018029;28;20207;-50
2023/12/12 02:35:37;;;;;;;4.67;4.17;;;7.00;99.90;;;;;;5013672;28;20287;-51
2023/12/12 02:38:02;;;;;;;7.50;5.07;;;7.00;99.90;;;;;;5022468;28;20597;-53
2023/12/12 02:40:28;;;;;;;5.70;4.43;;;7.10;99.90;;;;;;5019030;28;20230;-51
2023/12/12 02:42:53;;;;;;;5.10;4.57;;;7.20;99.90;;;;;;5019667;28;20191;-50
2023/12/12 02:45:19;;;;;;;5.60;5.03;;;7.30;99.90;;;;;;5013141;28;20192;-51
2023/12/12 02:47:44;;;;;;;6.03;4.00;;;7.30;99.90;;;;;;5020107;28;20762;-49
2023/12/12 02:50:10;;;;;;;6.43;4.43;;;7.40;99.90;;;;;;5017135;28;20203;-50
2023/12/12 02:52:35;;;;;;;6.70;6.00;;;7.30;99.90;;;;;;5020528;28;20264;-49
2023/12/12 02:55:01;;;;;;;6.63;4.93;;;7.40;99.90;;;;;;5016041;28;20226;-49
2023/12/12 02:57:27;;;;;;;7.40;5.37;;;7.60;99.90;;;;;;5015993;28;20191;-50
2023/12/12 02:59:52;;;;;;;6.63;5.97;;;7.60;99.90;;;;;;5013607;28;20290;-50
2023/12/12 03:02:18;;;;;;;5.90;4.33;;;7.50;99.90;;;;;;5013113;28;20215;-50
2023/12/12 03:04:44;;;;;;;6.07;5.30;;;7.60;99.90;;;;;;5018718;28;20206;-50
2023/12/12 03:07:10;;;;;;;7.20;5.87;;;7.60;99.90;;;;;;5016820;28;20611;-50
2023/12/12 03:09:36;;;;;;;5.50;5.00;;;7.80;99.90;;;;;;5001658;28;20292;-49
2023/12/12 03:12:01;;;;;;;5.63;5.10;;;7.90;99.90;;;;;;5015538;28;20273;-50
2023/12/12 03:14:30;;;;;;;6.33;5.67;;;7.80;99.90;;;;;;4998980;28;20197;-51
2023/12/12 03:16:57;;;;;;;6.30;5.33;;;7.70;99.90;;;;;;5017985;28;20599;-50
2023/12/12 03:19:24;;;;;;;5.97;5.47;;;7.50;99.90;;;;;;5016869;28;20697;-50
2023/12/12 03:21:49;;;;;;;6.20;5.63;;;7.20;99.90;;;;;;5014606;28;20692;-50
2023/12/12 03:24:16;;;;;;;6.10;5.47;;;7.40;99.90;;;;;;5013165;28;20264;-51
2023/12/12 03:26:43;;;;;;;7.67;6.80;;;7.30;99.90;;;;;;5018889;28;20237;-51
2023/12/12 03:29:08;;;;;;;6.10;5.50;;;7.30;99.90;;;;;;5018751;28;20259;-51
2023/12/12 03:31:34;;;;;;;7.73;6.20;;;7.20;99.90;;;;;;5019010;28;20352;-50
2023/12/12 03:33:59;;;;;;;8.63;6.40;;;7.10;99.90;;;;;;5026186;28;20195;-50
2023/12/12 03:36:25;;;;;;;7.53;6.27;;;7.30;99.90;;;;;;5024033;28;20191;-50
2023/12/12 03:38:50;;;;;;;9.00;6.27;;;7.50;99.90;;;;;;5015598;28;20196;-51
2023/12/12 03:41:16;;;;;;;6.90;5.97;;;7.30;99.90;;;;;;5013588;28;20258;-50
2023/12/12 03:43:42;;;;;;;6.87;6.03;;;7.40;99.90;;;;;;5018444;28;20210;-55
2023/12/12 03:46:11;;;;;;;6.67;6.03;;;7.50;99.90;;;;;;5011993;28;20254;-50
2023/12/12 03:48:37;;;;;;;6.33;5.63;;;7.60;99.90;;;;;;5017429;28;20226;-50
2023/12/12 03:51:03;;;;;;;6.07;5.47;;;7.70;99.90;;;;;;5006985;28;20187;-51
2023/12/12 03:53:28;;;;;;;6.37;5.30;;;7.60;99.90;;;;;;5018082;28;20386;-50
2023/12/12 03:55:54;;;;;;;4.87;4.30;;;7.30;99.90;;;;;;5014901;28;20451;-50
2023/12/12 03:58:19;;;;;;;4.53;4.23;;;7.20;99.90;;;;;;5012962;28;20195;-51
2023/12/12 04:00:45;;;;;;;4.90;3.83;;;7.10;99.90;;;;;;5010840;28;20199;-51
2023/12/12 04:03:10;;;;;;;3.67;3.37;;;7.20;99.90;;;;;;5016049;28;20814;-50
2023/12/12 04:05:36;;;;;;;3.20;2.43;;;7.20;99.90;;;;;;5011461;28;20310;-57
2023/12/12 04:08:01;;;;;;;2.57;2.37;;;7.40;99.90;;;;;;5018202;28;20584;-51
2023/12/12 04:10:27;;;;;;;3.50;2.47;;;7.40;99.90;;;;;;5013109;28;20274;-51
2023/12/12 04:12:53;;;;;;;2.97;2.67;;;7.50;99.90;;;;;;5019296;28;20667;-50
2023/12/12 04:15:18;;;;;;;3.93;2.57;;;7.60;99.90;;;;;;5017401;28;20203;-50
2023/12/12 04:17:44;;;;;;;2.07;1.87;;;7.30;99.90;;;;;;5011718;28;20207;-50
2023/12/12 04:20:10;;;;;;;4.10;1.80;;;7.20;99.90;;;;;;5013295;28;21067;-50
2023/12/12 04:22:35;;;;;;;2.50;1.53;;;7.20;99.90;;;;;;5019541;28;20191;-50
2023/12/12 04:25:01;;;;;;;3.10;2.10;;;7.20;99.90;;;;;;5003484;28;20191;-50
2023/12/12 04:27:26;;;;;;;3.17;2.20;;;7.10;99.90;;;;;;5014739;28;20202;-50
2023/12/12 04:29:52;;;;;;;4.27;2.13;;;7.00;99.90;;;;;;4990421;28;20226;-50
2023/12/12 04:32:17;;;;;;;4.40;2.83;;;7.00;99.90;;;;;;4996006;28;20900;-50
2023/12/12 04:34:45;;;;;;;2.90;2.20;;;6.80;99.90;;;;;;5011517;28;20263;-50
2023/12/12 04:37:10;;;;;;;4.20;2.77;;;6.80;99.90;;;;;;5018685;28;20726;-50
2023/12/12 04:39:36;;;;;;;8.13;3.30;;;6.80;99.90;;;;;;5024124;28;20711;-50
2023/12/12 04:42:02;;;;;;;5.27;3.33;;;6.80;99.90;;;;;;5019653;28;20203;-53
2023/12/12 04:44:27;;;;;;;3.40;2.80;;;6.80;99.90;;;;;;5015093;28;20207;-51
2023/12/12 04:46:53;;;;;;;5.57;3.77;;;6.80;99.90;;;;;;5012776;28;20273;-49
2023/12/12 04:49:20;;;;;;;5.43;3.10;;;7.00;99.90;;;;;;5018718;28;20720;-49
2023/12/12 04:51:46;;;;;;;5.10;3.50;;;7.20;99.90;;;;;;5017544;28;20273;-49
2023/12/12 04:54:11;;;;;;;5.90;2.93;;;7.30;99.90;;;;;;5007557;28;20220;-51
2023/12/12 04:56:36;;;;;;;4.60;2.80;;;7.40;99.90;;;;;;5006273;28;20204;-50
2023/12/12 04:59:02;;;;;;;3.20;2.73;;;7.40;99.90;;;;;;5013913;28;20273;-50
2023/12/12 05:01:28;;;;;;;5.53;3.40;;;7.50;99.90;;;;;;5014961;28;20270;-50
2023/12/12 05:03:53;;;;;;;8.83;3.17;;;7.20;99.90;;;;;;5008897;28;20236;-56
2023/12/12 05:06:19;;;;;;;3.80;3.33;;;7.00;99.90;;;;;;5007471;28;20208;-55
2023/12/12 05:08:44;;;;;;;6.30;3.17;;;6.90;99.90;;;;;;5010993;28;20265;-55
2023/12/12 05:11:13;;;;;;;5.83;2.83;;;6.90;99.90;;;;;;5014274;28;20239;-55
2023/12/12 05:13:39;;;;;;;3.13;2.87;;;6.60;99.90;;;;;;4992431;28;20202;-54
2023/12/12 05:16:08;;;;;;;4.43;3.23;;;6.60;99.90;;;;;;5019397;28;20207;-55
2023/12/12 05:18:33;;;;;;;3.07;2.83;;;6.50;99.90;;;;;;5012341;28;20200;-56
2023/12/12 05:20:59;;;;;;;5.13;3.50;;;6.60;99.90;;;;;;5020123;28;20206;-56
2023/12/12 05:23:26;;;;;;;6.30;3.60;;;6.90;99.90;;;;;;5024024;28;20278;-55
2023/12/12 05:25:51;;;;;;;4.47;3.70;;;6.80;99.90;;;;;;5015201;28;20379;-55
2023/12/12 05:28:17;;;;;;;10.57;3.63;;;6.70;99.90;;;;;;5001302;28;20587;-55
2023/12/12 05:30:46;;;;;;;10.63;3.97;;;6.60;99.90;;;;;;5014852;28;20697;-55
2023/12/12 05:33:12;;;;;;;5.60;3.77;;;6.50;99.90;;;;;;5014695;28;20211;-55
2023/12/12 05:35:38;;;;;;;4.97;3.50;;;6.60;99.90;;;;;;5014841;28;20672;-54
2023/12/12 05:38:03;;;;;;;6.73;4.23;;;6.50;99.90;;;;;;5021233;28;20198;-55
2023/12/12 05:40:30;;;;;;;5.50;3.57;;;6.50;99.90;;;;;;4999783;28;20200;-55
2023/12/12 05:42:56;;;;;;;9.43;4.03;;;6.70;99.90;;;;;;5018984;28;20199;-54
2023/12/12 05:45:22;;;;;;;10.87;4.17;;;6.60;99.90;;;;;;5013587;28;20693;-56
2023/12/12 05:47:48;;;;;;;6.40;3.20;;;6.70;99.90;;;;;;5017458;28;20234;-55
2023/12/12 05:50:14;;;;;;;5.77;3.37;;;6.70;99.90;;;;;;5017690;28;20195;-56
2023/12/12 05:52:40;;;;;;;6.13;3.20;;;6.60;99.90;;;;;;5023129;28;20207;-63
2023/12/12 05:55:05;;;;;;;6.63;3.93;;;6.80;99.90;;;;;;5011817;28;20199;-55
2023/12/12 05:57:32;;;;;;;5.37;3.23;;;7.10;99.90;;;;;;5017435;28;20203;-54
2023/12/12 06:00:03;;;;;;;5.97;3.53;;;7.10;99.90;;;;;;5017226;28;20211;-56
2023/12/12 06:02:28;;;;;;;6.90;3.40;;;7.30;99.90;;;;;;5017584;28;20210;-55
2023/12/12 06:04:54;;;;;;;8.50;3.47;;;7.50;99.90;;;;;;5014696;28;20195;-55
2023/12/12 06:07:19;;;;;;;5.33;3.47;;;7.40;99.90;;;;;;5014682;28;20918;-61
2023/12/12 06:09:45;;;;;;;5.13;3.30;;;7.40;99.90;;;;;;5009166;28;20276;-55
2023/12/12 06:12:11;;;;;;;7.03;3.87;;;7.40;99.90;;;;;;5012625;28;20589;-55
2023/12/12 06:14:36;;;;;;;4.93;2.97;;;7.30;99.90;;;;;;5020845;28;20222;-55
2023/12/12 06:17:05;;;;;;;3.90;3.57;;;7.10;99.90;;;;;;5016806;28;20763;-55
2023/12/12 06:19:31;;;;;;;6.10;3.10;;;7.20;99.90;;;;;;5015325;28;20283;-55
2023/12/12 06:21:56;;;;;;;5.93;3.57;;;7.10;99.90;;;;;;5013801;28;20203;-61
2023/12/12 06:24:22;;;;;;;10.03;3.17;;;7.10;99.90;;;;;;5008669;28;20203;-57
2023/12/12 06:26:48;;;;;;;6.20;3.47;;;7.00;99.90;;;;;;5011670;28;20290;-55
2023/12/12 06:29:14;;;;;;;4.73;3.63;;;7.00;99.90;;;;;;5012580;28;20310;-55
2023/12/12 06:31:40;;;;;;;5.93;3.10;;;7.00;99.90;;;;;;5018884;28;21082;-62
2023/12/12 06:34:10;;;;;;;5.90;3.40;;;7.20;99.90;;;;;;5015915;28;20199;-59
2023/12/12 06:36:36;;;;;;;6.37;3.83;;;7.20;99.90;;;;;;5010639;28;20199;-62
2023/12/12 06:39:03;;;;;;;6.23;3.83;;;7.30;99.90;;;;;;5014191;28;20206;-54
2023/12/12 06:41:28;;;;;;;4.13;3.57;;;7.00;99.90;;;;;;5015409;28;20206;-55
2023/12/12 06:43:53;;;;;;;5.80;4.20;;;7.10;99.90;;;;;;5010639;28;20199;-57
2023/12/12 06:46:19;;;;;;;4.93;4.10;;;7.20;99.90;;;;;;4995121;28;20610;-54
2023/12/12 06:48:45;;;;;;;6.07;3.93;;;7.10;99.90;;;;;;5014995;28;20270;-55
2023/12/12 06:51:10;;;;;;;11.47;4.47;;;7.30;99.90;;;;;;5016860;28;20203;-54
2023/12/12 06:53:36;;;;;;;6.17;5.40;;;7.30;99.90;;;;;;5012075;28;20235;-54
2023/12/12 06:56:02;;;;;;;6.73;5.60;;;7.20;99.90;;;;;;5010117;28;20199;-54
2023/12/12 06:58:28;;;;;;;7.83;4.80;;;6.90;99.90;;;;;;5014763;28;20210;-55
2023/12/12 07:00:54;;;;;;;5.47;4.97;;;6.80;99.90;;;;;;5016742;28;20206;-56
2023/12/12 07:03:21;;;;;;;8.40;5.90;;;6.80;99.90;;;;;;4998382;28;20196;-72
2023/12/12 07:05:50;;;;;;;7.67;5.67;;;6.80;99.90;;;;;;5012178;28;20198;-56
2023/12/12 07:08:19;;;;;;;5.70;5.20;;;7.00;99.90;;;;;;5002131;28;20244;-62
2023/12/12 07:10:48;;;;;;;7.13;5.40;;;7.00;99.90;;;;;;5011095;28;20199;-55
2023/12/12 07:13:13;;;;;;;6.07;5.27;;;7.00;99.90;;;;;;5012704;28;20201;-56
2023/12/12 07:15:40;;;;;;;17.53;5.70;;;6.80;99.90;;;;;;5016007;28;20285;-55
2023/12/12 07:18:10;;;;;;;9.37;6.20;;;6.80;99.90;;;;;;5015902;28;20203;-55
2023/12/12 07:20:36;;;;;;;11.13;5.63;;;6.90;99.90;;;;;;5009543;28;20198;-56
2023/12/12 07:23:03;;;;;;;6.13;5.53;;;7.10;99.90;;;;;;5014227;28;20223;-55
2023/12/12 07:25:29;;;;;;;11.40;5.23;;;6.90;99.90;;;;;;5013925;28;20323;-55
2023/12/12 07:27:55;;;;;;;7.10;5.60;;;7.00;99.90;;;;;;5016279;28;20641;-55
2023/12/12 07:30:20;;;;;;;6.80;5.57;;;7.00;99.90;;;;;;5014450;28;20812;-55
2023/12/12 07:32:46;;;;;;;9.90;5.43;;;7.00;99.90;;;;;;5015499;28;20199;-55
2023/12/12 07:35:11;;;;;;;9.83;5.57;;;6.80;99.90;;;;;;5017231;28;21083;-54
2023/12/12 07:37:37;;;;;;;7.50;5.43;;;6.90;99.90;;;;;;5020011;28;20199;-54
2023/12/12 07:40:04;;;;;;;6.27;5.77;;;6.80;99.90;;;;;;5014254;28;20209;-55
2023/12/12 07:42:30;;;;;;;8.40;5.87;;;6.80;99.90;;;;;;5017684;28;20969;-54
2023/12/12 07:44:56;;;;;;;9.03;6.33;;;6.70;99.90;;;;;;5011236;28;20195;-55
2023/12/12 07:47:22;;;;;;;11.07;5.83;;;6.60;99.90;;;;;;5003646;28;20231;-55
2023/12/12 07:49:47;;;;;;;7.67;6.57;;;6.60;99.90;;;;;;5023114;28;20225;-55
2023/12/12 07:52:13;;;;;;;9.90;6.57;;;6.50;99.90;;;;;;5018644;28;20221;-55
2023/12/12 07:54:39;;;;;;;12.27;6.77;;;6.60;99.90;;;;;;5020110;28;20573;-55
2023/12/12 07:57:05;;;;;;;10.37;6.83;;;6.60;99.90;;;;;;5016846;28;20203;-55
2023/12/12 07:59:30;;;;;;;12.90;7.60;;;6.70;99.90;;;;;;5013733;28;20268;-56
2023/12/12 08:01:56;;;;;;;8.10;5.80;;;6.90;99.90;;;;;;5011762;28;20196;-56
2023/12/12 08:04:22;;;;;;;12.80;7.13;;;6.80;99.90;;;;;;5014968;28;20632;-55
2023/12/12 08:06:47;;;;;;;14.53;6.47;;;6.80;99.90;;;;;;5015630;28;20205;-56
2023/12/12 08:09:13;;;;;;;12.33;6.07;;;6.80;99.90;;;;;;5014621;28;20227;-56
2023/12/12 08:11:39;;;;;;;10.40;7.07;;;6.70;99.90;;;;;;4998485;28;20256;-55
2023/12/12 08:14:05;;;;;;;10.20;7.47;;;6.70;99.90;;;;;;5017272;28;20203;-55
2023/12/12 08:16:31;;;;;;;12.30;7.17;;;6.70;99.90;;;;;;5019421;28;20208;-54
2023/12/12 08:18:56;;;;;;;13.27;6.93;;;6.60;99.90;;;;;;5013470;28;20192;-54
2023/12/12 08:21:22;;;;;;;10.97;6.77;;;6.70;99.90;;;;;;5011825;28;20207;-55
2023/12/12 08:23:48;;;;;;;14.73;6.83;;;6.70;99.90;;;;;;5016158;28;20202;-54
2023/12/12 08:26:14;;;;;;;15.83;5.67;;;6.60;99.90;;;;;;5004881;28;21014;-55
2023/12/12 08:28:39;;;;;;;11.97;5.97;;;6.70;99.90;;;;;;5006248;28;20243;-55
2023/12/12 08:31:05;;;;;;;11.33;5.33;;;6.80;99.90;;;;;;5024464;28;20210;-54
2023/12/12 08:33:33;;;;;;;10.60;5.53;;;6.90;99.90;;;;;;5019598;28;20287;-55
2023/12/12 08:35:59;;;;;;;6.53;4.77;;;7.00;99.90;;;;;;5018297;28;20974;-55
2023/12/12 08:38:25;;;;;;;11.00;6.90;;;7.20;99.90;;;;;;5000982;28;20745;-56
2023/12/12 08:40:50;;;;;;;12.07;5.40;;;7.30;99.90;;;;;;5021068;28;20234;-55
2023/12/12 08:43:16;;;;;;;11.30;4.53;;;7.00;99.90;;;;;;5021944;28;20191;-55
2023/12/12 08:45:43;;;;;;;12.43;5.67;;;6.90;99.90;;;;;;5016167;28;20218;-55
2023/12/12 08:48:09;;;;;;;8.57;5.80;;;7.00;99.90;;;;;;5021850;28;20239;-54
2023/12/12 08:50:35;;;;;;;9.07;5.27;;;7.00;99.90;;;;;;5023575;28;20202;-55
2023/12/12 08:53:02;;;;;;;11.53;4.23;;;7.20;99.90;;;;;;5022535;28;20207;-55
2023/12/12 08:55:27;;;;;;;10.13;4.90;;;7.40;99.90;;;;;;5020721;28;20678;-55
2023/12/12 08:57:53;;;;;;;11.90;4.27;;;7.40;99.90;;;;;;5017887;28;20907;-56
2023/12/12 09:00:18;;;;;;;5.60;4.40;;;7.50;99.90;;;;;;5015263;28;20210;-57
2023/12/12 09:02:44;;;;;;;8.63;4.50;;;7.30;99.90;;;;;;5019033;28;20265;-56
2023/12/12 09:05:10;;;;;;;5.43;4.07;;;7.10;99.90;;;;;;5018541;28;20207;-63
2023/12/12 09:07:36;;;;;;;10.43;4.87;;;7.40;99.90;;;;;;5016913;28;20206;-54
2023/12/12 09:10:05;;;;;;;8.50;4.60;;;7.60;99.90;;;;;;5020293;28;20253;-56
2023/12/12 09:12:31;;;;;;;6.27;3.83;;;7.50;99.90;;;;;;5020091;28;20212;-55
2023/12/12 09:14:56;;;;;;;8.37;4.73;;;7.40;99.90;;;;;;5020611;28;20198;-60
2023/12/12 09:17:22;;;;;;;7.77;3.60;;;7.40;99.90;;;;;;5017145;28;20211;-56
2023/12/12 09:19:47;;;;;;;4.00;3.07;;;7.20;99.90;;;;;;5009887;28;20235;-55
2023/12/12 09:22:13;;;;;;;5.97;3.87;;;7.20;99.90;;;;;;5016664;28;20249;-55
2023/12/12 09:24:38;;;;;;;5.77;3.63;;;7.20;99.90;;;;;;5022790;28;20206;-54
2023/12/12 09:27:04;;;;;;;12.00;3.90;;;7.30;99.90;;;;;;5023380;28;20195;-55
2023/12/12 09:29:30;;;;;;;3.27;2.97;;;7.40;99.90;;;;;;5019538;28;20594;-54
2023/12/12 09:31:56;;;;;;;10.50;4.50;;;7.40;99.90;;;;;;5021644;28;20269;-55
2023/12/12 09:34:23;;;;;;;7.17;3.87;;;7.40;99.90;;;;;;5023612;28;20290;-55
2023/12/12 09:36:50;;;;;;;3.47;3.20;;;7.40;99.90;;;;;;5016376;28;20673;-56
2023/12/12 09:39:16;;;;;;;6.37;3.43;;;7.30;99.90;;;;;;5019973;28;20227;-55
2023/12/12 09:41:45;;;;;;;9.67;4.20;;;7.30;99.90;;;;;;5026346;28;20757;-55
2023/12/12 09:44:15;;;;;;;8.43;3.50;;;7.10;99.90;;;;;;5020573;28;20209;-56
2023/12/12 09:46:42;;;;;;;10.50;4.23;;;7.10;99.90;;;;;;5000796;28;20718;-55
2023/12/12 09:49:09;;;;;;;12.97;4.70;;;7.10;99.90;;;;;;5014393;28;20246;-55
2023/12/12 09:51:35;;;;;;;6.00;4.10;;;7.40;99.90;;;;;;5020837;28;20211;-55
2023/12/12 09:54:06;;;;;;;4.27;3.87;;;6.90;99.90;;;;;;5016013;28;20195;-54
2023/12/12 09:56:32;;;;;;;9.30;4.30;;;7.00;99.90;;;;;;5014141;28;20277;-54
2023/12/12 09:58:58;;;;;;;6.03;3.67;;;6.80;99.90;;;;;;5013559;28;20207;-55
2023/12/12 10:01:26;;;;;;;6.10;3.90;;;6.90;99.90;;;;;;4997231;28;20208;-55
2023/12/12 10:03:53;;;;;;;9.10;3.53;;;6.60;99.90;;;;;;5016237;28;20670;-55
2023/12/12 10:06:19;;;;;;;6.47;3.70;;;6.60;99.90;;;;;;5024993;28;20199;-54
2023/12/12 10:08:45;;;;;;;8.07;4.00;;;6.60;99.90;;;;;;5023195;28;20674;-54
2023/12/12 10:11:10;;;;;;;6.43;3.20;;;6.70;99.90;;;;;;5015934;28;20273;-54
2023/12/12 10:13:48;;;;;;;5.63;3.50;;;6.80;99.90;;;;;;5019158;28;20207;-54
2023/12/12 10:16:14;;;;;;;6.87;3.80;;;6.60;99.90;;;;;;5021932;28;20677;-54
2023/12/12 10:18:39;;;;;;;10.73;4.80;;;6.70;99.90;;;;;;4998759;28;20213;-54
2023/12/12 10:21:15;;;;;;;6.43;3.40;;;6.60;99.90;;;;;;5014155;28;20330;-54
2023/12/12 10:23:51;;;;;;;3.57;2.77;;;6.70;99.90;;;;;;5017580;28;20348;-58
2023/12/12 10:26:29;;;;;;;4.33;3.60;;;6.80;99.90;;;;;;5018819;28;20207;-54
2023/12/12 10:28:56;;;;;;;7.40;3.37;;;7.00;99.90;;;;;;5009630;28;20210;-55
2023/12/12 10:31:25;;;;;;;4.43;2.70;;;7.20;99.90;;;;;;5007039;28;20566;-55
2023/12/12 10:33:51;;;;;;;5.73;3.10;;;7.20;99.90;;;;;;5019303;28;20218;-55
2023/12/12 10:36:16;;;;;;;5.43;3.67;;;7.30;99.90;;;;;;5016780;28;20199;-55
2023/12/12 10:38:42;;;;;;;4.33;3.50;;;7.40;99.90;;;;;;5021171;28;20210;-55
2023/12/12 10:41:15;;;;;;;10.47;4.27;;;7.50;99.90;;;;;;5023811;28;20195;-55
2023/12/12 10:43:42;;;;;;;6.70;3.90;;;7.60;99.90;;;;;;4998838;28;20199;-54
2023/12/12 10:46:16;;;;;;;3.87;3.33;;;7.70;99.90;;;;;;5014244;28;20281;-70
2023/12/12 10:48:52;;;;;;;5.73;4.23;;;7.60;99.90;;;;;;5013160;28;20227;-55
2023/12/12 10:51:18;;;;;;;9.23;4.10;;;7.50;99.90;;;;;;4999560;28;20207;-56
2023/12/12 10:53:46;;;;;;;5.27;4.47;;;7.60;99.90;;;;;;5020383;28;20270;-55
2023/12/12 10:56:13;;;;;;;5.93;4.03;;;7.80;99.90;;;;;;5015116;28;20192;-55
2023/12/12 10:58:42;;;;;;;7.10;3.60;;;7.60;99.90;;;;;;5023997;28;20577;-55
2023/12/12 11:01:14;;;;;;;7.50;3.47;;;7.50;99.90;;;;;;5013628;28;20199;-53
2023/12/12 11:03:43;;;;;;;6.20;3.90;;;7.40;99.90;;;;;;5016200;28;20536;-55
2023/12/12 11:06:09;;;;;;;4.23;3.83;;;7.60;99.90;;;;;;5021861;28;20277;-55
2023/12/12 11:08:35;;;;;;;4.03;3.63;;;7.40;99.90;;;;;;5015320;28;20639;-55
2023/12/12 11:11:08;;;;;;;4.47;3.27;;;7.40;99.90;;;;;;5005196;28;20282;-55
2023/12/12 11:13:36;;;;;;;9.87;4.53;;;7.70;99.90;;;;;;5015530;28;20281;-55
2023/12/12 11:16:03;;;;;;;7.13;3.93;;;8.00;99.90;;;;;;5019021;28;20206;-55
2023/12/12 11:18:30;;;;;;;4.90;3.27;;;8.10;99.90;;;;;;5017086;28;20212;-55
2023/12/12 11:20:55;;;;;;;6.57;3.47;;;8.40;99.90;;;;;;5016046;28;20211;-55
2023/12/12 11:23:46;;;;;;;7.13;2.93;;;8.60;99.90;;;;;;5022536;28;20286;-55
2023/12/12 11:26:15;;;;;;;4.80;3.50;;;8.70;99.90;;;;;;4992849;28;20203;-55
2023/12/12 11:28:42;;;;;;;4.63;3.17;;;8.70;99.90;;;;;;5014045;28;20230;-54
2023/12/12 11:31:08;;;;;;;5.13;3.20;;;8.60;99.90;;;;;;5020071;28;20678;-55
2023/12/12 11:34:03;;;;;;;5.97;3.20;;;8.60;99.90;;;;;;5024613;28;20207;-55
2023/12/12 11:36:58;;;;;;;5.30;3.63;;;8.70;99.90;;;;;;5019614;28;20235;-55
2023/12/12 11:39:41;;;;;;;7.27;4.33;;;8.80;99.90;;;;;;5009101;28;20672;-56
2023/12/12 11:42:16;;;;;;;9.80;3.47;;;8.40;99.90;;;;;;5011943;28;20220;-56
2023/12/12 11:44:46;;;;;;;6.23;3.80;;;8.60;99.90;;;;;;5008532;28;20842;-58
2023/12/12 11:47:16;;;;;;;7.70;3.63;;;8.30;99.90;;;;;;5010007;28;20223;-54
2023/12/12 11:49:46;;;;;;;8.87;3.80;;;8.50;99.90;;;;;;5012901;28;20226;-55
2023/12/12 11:52:37;;;;;;;4.37;3.20;;;8.50;99.90;;;;;;5014160;28;20288;-53
2023/12/12 11:55:03;;;;;;;3.97;3.27;;;8.60;99.90;;;;;;5011068;28;20203;-54
2023/12/12 11:57:29;;;;;;;5.37;3.03;;;8.60;99.90;;;;;;4998154;28;20206;-55
2023/12/12 11:59:55;;;;;;;5.40;3.23;;;8.70;99.90;;;;;;5018249;28;20194;-57
2023/12/12 12:02:21;;;;;;;3.10;2.47;;;8.80;99.90;;;;;;4992452;28;20259;-66
2023/12/12 12:04:46;;;;;;;3.37;2.53;;;8.50;99.90;;;;;;5013109;28;20237;-56
2023/12/12 12:07:12;;;;;;;4.60;3.40;;;8.70;99.90;;;;;;5016444;28;20202;-56
2023/12/12 12:09:41;;;;;;;3.47;2.70;;;8.70;99.90;;;;;;4996232;28;20233;-56
2023/12/12 12:12:10;;;;;;;8.27;3.03;;;8.70;99.90;;;;;;5019292;28;20615;-56
2023/12/12 12:14:35;;;;;;;6.03;3.07;;;8.50;99.90;;;;;;5017634;28;20222;-56
2023/12/12 12:17:01;;;;;;;4.90;2.93;;;8.60;99.90;;;;;;5014223;28;20944;-56
2023/12/12 12:19:28;;;;;;;5.20;3.10;;;8.70;99.90;;;;;;5011816;28;20562;-63
2023/12/12 12:22:14;;;;;;;4.73;2.83;;;8.80;99.90;;;;;;5005337;28;20750;-63
2023/12/12 12:24:42;;;;;;;7.07;4.80;;;8.90;99.90;;;;;;5013367;28;20239;-54
2023/12/12 12:27:07;;;;;;;3.70;2.33;;;8.90;99.90;;;;;;5010180;28;20261;-62
2023/12/12 12:29:33;;;;;;;6.00;2.57;;;8.80;99.90;;;;;;5021790;28;20222;-63
2023/12/12 12:32:11;;;;;;;3.23;2.17;;;8.70;99.90;;;;;;5022610;28;20689;-58
2023/12/12 12:34:37;;;;;;;4.97;2.17;;;9.60;99.90;;;;;;5017732;28;20192;-55
2023/12/12 12:37:02;;;;;;;6.10;2.57;;;10.50;99.90;;;;;;5025271;28;20210;-57
2023/12/12 12:39:28;;;;;;;3.70;2.10;;;11.70;99.90;;;;;;5021867;28;20255;-73
2023/12/12 12:41:55;;;;;;;4.23;2.57;;;11.50;99.90;;;;;;4998511;28;20591;-63
2023/12/12 12:44:21;;;;;;;6.63;2.17;;;11.10;99.90;;;;;;4994433;28;20264;-63
2023/12/12 12:46:51;;;;;;;3.33;2.30;;;10.80;99.90;;;;;;5013149;28;20190;-56
2023/12/12 12:49:17;;;;;;;3.87;2.43;;;10.40;99.90;;;;;;4993862;28;20603;-55
2023/12/12 12:51:42;;;;;;;4.63;2.60;;;10.30;99.90;;;;;;5017217;28;20223;-65
2023/12/12 12:54:08;;;;;;;2.63;2.03;;;10.60;99.90;;;;;;5027205;28;20215;-55